createdAt,value
2018-03-27T00:01:41.096Z,82.79
2018-03-27T00:04:10.132Z,82.04
2018-03-27T00:06:38.502Z,84.33
2018-03-27T00:09:06.865Z,84.73
2018-03-27T00:11:35.125Z,83.87
2018-03-27T00:14:04.172Z,83.22
2018-03-27T00:16:32.577Z,81.91
2018-03-27T00:19:00.798Z,82.08
2018-03-27T00:21:29.076Z,83.10
2018-03-27T00:23:57.326Z,82.96
2018-03-27T00:26:25.593Z,83.44
2018-03-27T00:29:12.333Z,82.39
2018-03-27T00:31:58.484Z,81.85
2018-03-27T00:34:44.468Z,81.64
2018-03-27T00:37:30.624Z,82.56
2018-03-27T00:40:16.696Z,81.82
2018-03-27T00:42:51.544Z,81.64
2018-03-27T00:45:19.813Z,81.53
2018-03-27T00:47:48.080Z,81.23
2018-03-27T00:50:16.332Z,80.55
2018-03-27T00:52:45.381Z,80.06
2018-03-27T00:55:13.678Z,80.19
2018-03-27T00:57:41.938Z,80.47
2018-03-27T01:00:10.221Z,80.04
2018-03-27T01:02:38.480Z,82.05
2018-03-27T01:05:10.584Z,81.61
2018-03-27T01:07:38.853Z,82.53
2018-03-27T01:10:07.106Z,82.45
2018-03-27T01:12:35.372Z,81.48
2018-03-27T01:15:03.680Z,81.40
2018-03-27T01:17:31.936Z,85.04
2018-03-27T01:20:00.213Z,87.14
2018-03-27T01:22:28.465Z,87.19
2018-03-27T01:24:56.734Z,88.20
2018-03-27T01:27:25.018Z,87.25
2018-03-27T01:29:53.271Z,88.33
2018-03-27T01:32:22.304Z,88.36
2018-03-27T01:34:50.576Z,88.94
2018-03-27T01:37:18.834Z,87.85
2018-03-27T01:39:47.086Z,87.18
2018-03-27T01:42:16.136Z,86.15
2018-03-27T01:44:44.416Z,85.83
2018-03-27T01:47:12.691Z,85.31
2018-03-27T01:49:40.957Z,84.82
2018-03-27T01:52:09.214Z,84.88
2018-03-27T01:54:37.489Z,86.00
2018-03-27T01:57:05.753Z,85.29
2018-03-27T01:59:34.025Z,85.30
2018-03-27T02:02:02.301Z,85.35
2018-03-27T02:04:30.572Z,87.63
2018-03-27T02:06:59.742Z,87.60
2018-03-27T02:09:28.073Z,86.65
2018-03-27T02:12:01.860Z,86.36
2018-03-27T02:14:35.727Z,86.17
2018-03-27T02:17:09.526Z,85.13
2018-03-27T02:19:43.331Z,85.09
2018-03-27T02:22:11.589Z,85.99
2018-03-27T02:24:39.835Z,86.16
2018-03-27T02:27:08.105Z,85.44
2018-03-27T02:29:36.376Z,86.25
2018-03-27T02:32:04.637Z,86.45
2018-03-27T02:34:33.676Z,86.17
2018-03-27T02:37:01.927Z,87.20
2018-03-27T02:39:30.185Z,87.08
2018-03-27T02:42:00.448Z,86.82
2018-03-27T02:44:28.712Z,86.18
2018-03-27T02:46:56.980Z,85.67
2018-03-27T02:49:25.237Z,86.19
2018-03-27T02:51:54.298Z,86.55
2018-03-27T02:54:22.565Z,86.21
2018-03-27T02:56:50.822Z,85.83
2018-03-27T02:59:19.113Z,85.36
2018-03-27T03:01:47.372Z,85.90
2018-03-27T03:04:15.639Z,85.88
2018-03-27T03:06:43.908Z,86.60
2018-03-27T03:09:12.181Z,87.25
2018-03-27T03:11:40.435Z,86.88
2018-03-27T03:14:09.501Z,87.34
2018-03-27T03:16:37.747Z,86.95
2018-03-27T03:19:06.035Z,86.71
2018-03-27T03:21:34.292Z,86.99
2018-03-27T03:24:02.556Z,86.84
2018-03-27T03:26:30.812Z,86.51
2018-03-27T03:28:59.876Z,86.38
2018-03-27T03:31:28.125Z,86.53
2018-03-27T03:33:56.393Z,86.60
2018-03-27T03:36:24.660Z,86.36
2018-03-27T03:38:52.922Z,86.28
2018-03-27T03:41:21.421Z,85.93
2018-03-27T03:43:49.680Z,87.53
2018-03-27T03:46:18.706Z,88.37
2018-03-27T03:48:46.984Z,87.22
2018-03-27T03:51:15.276Z,86.86
2018-03-27T03:53:43.540Z,86.57
2018-03-27T03:56:11.825Z,86.77
2018-03-27T03:58:40.085Z,86.97
2018-03-27T04:01:08.362Z,87.16
2018-03-27T04:03:36.654Z,87.63
2018-03-27T04:06:04.924Z,87.13
2018-03-27T04:08:33.183Z,86.83
2018-03-27T04:11:01.453Z,86.51
2018-03-27T04:13:29.711Z,87.49
2018-03-27T04:15:57.961Z,89.37
2018-03-27T04:18:26.232Z,89.44
2018-03-27T04:20:54.492Z,89.15
2018-03-27T04:23:22.769Z,88.76
2018-03-27T04:25:51.024Z,88.86
2018-03-27T04:28:19.295Z,88.72
2018-03-27T04:30:47.584Z,88.37
2018-03-27T04:33:15.837Z,88.68
2018-03-27T04:35:44.088Z,90.35
2018-03-27T04:38:13.134Z,89.97
2018-03-27T04:40:41.517Z,91.02
2018-03-27T04:43:09.749Z,92.47
2018-03-27T04:45:38.033Z,93.75
2018-03-27T04:48:06.292Z,93.63
2018-03-27T04:50:34.549Z,93.06
2018-03-27T04:53:03.589Z,92.40
2018-03-27T04:55:31.844Z,92.03
2018-03-27T04:58:00.108Z,91.79
2018-03-27T05:00:29.163Z,91.23
2018-03-27T05:02:57.417Z,92.97
2018-03-27T05:05:25.730Z,95.87
2018-03-27T05:07:53.992Z,95.84
2018-03-27T05:10:22.256Z,94.67
2018-03-27T05:12:50.540Z,93.84
2018-03-27T05:15:18.796Z,93.35
2018-03-27T05:17:47.074Z,92.31
2018-03-27T05:20:15.340Z,90.92
2018-03-27T05:22:43.616Z,91.00
2018-03-27T05:25:11.879Z,91.04
2018-03-27T05:27:40.156Z,91.56
2018-03-27T05:30:08.417Z,90.70
2018-03-27T05:32:37.446Z,91.26
2018-03-27T05:35:05.732Z,91.73
2018-03-27T05:37:33.996Z,90.60
2018-03-27T05:40:02.278Z,89.45
2018-03-27T05:42:30.554Z,88.96
2018-03-27T05:44:58.814Z,88.82
2018-03-27T05:47:27.074Z,88.73
2018-03-27T05:49:55.372Z,88.47
2018-03-27T05:52:23.637Z,88.64
2018-03-27T05:54:51.907Z,88.50
2018-03-27T05:57:20.159Z,89.16
2018-03-27T05:59:49.202Z,90.95
2018-03-27T06:02:17.477Z,92.01
2018-03-27T06:04:45.727Z,91.19
2018-03-27T06:07:13.984Z,90.36
2018-03-27T06:09:43.012Z,89.50
2018-03-27T06:12:11.272Z,89.13
2018-03-27T06:14:39.548Z,88.55
2018-03-27T06:17:07.809Z,88.67
2018-03-27T06:19:36.830Z,88.79
2018-03-27T06:22:05.101Z,89.01
2018-03-27T06:24:33.362Z,88.88
2018-03-27T06:27:02.385Z,88.23
2018-03-27T06:29:30.664Z,88.26
2018-03-27T06:31:58.928Z,88.44
2018-03-27T06:34:27.201Z,88.93
2018-03-27T06:36:55.464Z,88.32
2018-03-27T06:39:23.718Z,88.71
2018-03-27T06:41:53.124Z,88.50
2018-03-27T06:44:22.153Z,87.87
2018-03-27T06:46:50.408Z,88.06
2018-03-27T06:49:18.725Z,87.93
2018-03-27T06:51:46.996Z,87.97
2018-03-27T06:54:15.256Z,87.25
2018-03-27T06:56:43.513Z,86.84
2018-03-27T06:59:11.788Z,86.56
2018-03-27T07:01:40.048Z,86.46
2018-03-27T07:04:09.086Z,86.41
2018-03-27T07:06:37.361Z,86.15
2018-03-27T07:09:06.424Z,85.94
2018-03-27T07:11:35.448Z,85.77
2018-03-27T07:14:03.831Z,85.87
2018-03-27T07:16:32.105Z,85.60
2018-03-27T07:19:00.390Z,85.76
2018-03-27T07:21:28.617Z,85.33
2018-03-27T07:23:57.661Z,85.69
2018-03-27T07:26:25.920Z,85.23
2018-03-27T07:28:54.184Z,84.87
2018-03-27T07:31:22.452Z,83.83
2018-03-27T07:33:50.716Z,84.00
2018-03-27T07:36:19.754Z,83.88
2018-03-27T07:38:48.014Z,83.96
2018-03-27T07:41:16.281Z,83.13
2018-03-27T07:43:44.606Z,84.06
2018-03-27T07:46:13.693Z,84.76
2018-03-27T07:48:42.035Z,84.16
2018-03-27T07:51:10.407Z,84.09
2018-03-27T07:53:38.670Z,84.12
2018-03-27T07:56:07.701Z,84.39
2018-03-27T07:58:35.994Z,83.02
2018-03-27T08:01:04.248Z,82.72
2018-03-27T08:03:32.552Z,82.25
2018-03-27T08:06:00.809Z,81.95
2018-03-27T08:08:29.091Z,82.20
2018-03-27T08:10:57.389Z,82.04
2018-03-27T08:13:25.725Z,81.88
2018-03-27T08:15:54.025Z,81.35
2018-03-27T08:18:22.288Z,79.96
2018-03-27T08:20:51.034Z,81.03
2018-03-27T08:23:20.081Z,80.47
2018-03-27T08:25:48.340Z,80.27
2018-03-27T08:28:16.625Z,80.14
2018-03-27T08:30:44.899Z,79.63
2018-03-27T08:33:13.171Z,79.87
2018-03-27T08:35:41.443Z,80.59
2018-03-27T08:38:09.709Z,78.60
2018-03-27T08:40:37.981Z,78.87
2018-03-27T08:43:06.244Z,78.86
2018-03-27T08:45:35.313Z,78.78
2018-03-27T08:48:03.593Z,77.79
2018-03-27T08:50:31.902Z,77.68
2018-03-27T08:53:00.176Z,76.66
2018-03-27T08:55:28.441Z,75.39
2018-03-27T08:57:57.484Z,74.81
2018-03-27T09:00:25.791Z,75.26
2018-03-27T09:02:54.060Z,74.77
2018-03-27T09:05:22.347Z,73.67
2018-03-27T09:07:50.637Z,74.44
2018-03-27T09:10:19.669Z,72.99
2018-03-27T09:12:47.941Z,72.54
2018-03-27T09:15:16.227Z,71.62
2018-03-27T09:17:44.497Z,71.12
2018-03-27T09:20:12.770Z,70.22
2018-03-27T09:22:41.040Z,70.92
2018-03-27T09:25:09.318Z,69.26
2018-03-27T09:27:37.576Z,69.39
2018-03-27T09:30:05.883Z,67.37
2018-03-27T09:32:34.168Z,67.08
2018-03-27T09:35:02.433Z,65.76
2018-03-27T09:37:30.707Z,65.00
2018-03-27T09:39:58.999Z,63.42
2018-03-27T09:42:27.285Z,63.03
2018-03-27T09:44:55.586Z,61.72
2018-03-27T09:47:23.851Z,62.35
2018-03-27T09:49:52.162Z,61.01
2018-03-27T09:52:20.436Z,57.87
2018-03-27T09:54:48.727Z,56.19
2018-03-27T09:57:17.021Z,54.69
2018-03-27T09:59:45.281Z,53.28
2018-03-27T10:02:13.567Z,53.92
2018-03-27T10:04:41.838Z,52.54
2018-03-27T10:07:10.114Z,52.12
2018-03-27T10:09:38.400Z,53.46
2018-03-27T10:12:06.671Z,53.19
2018-03-27T10:14:34.953Z,51.50
2018-03-27T10:17:03.228Z,50.19
2018-03-27T10:19:31.523Z,48.18
2018-03-27T10:21:59.791Z,47.76
2018-03-27T10:24:28.078Z,49.40
2018-03-27T10:26:56.337Z,48.83
2018-03-27T10:29:24.634Z,48.63
2018-03-27T10:31:52.901Z,49.13
2018-03-27T10:34:21.165Z,49.69
2018-03-27T10:36:49.451Z,49.57
2018-03-27T10:39:17.852Z,48.11
2018-03-27T10:41:46.117Z,50.15
2018-03-27T10:44:14.387Z,49.32
2018-03-27T10:46:42.656Z,49.17
2018-03-27T10:49:10.960Z,51.41
2018-03-27T10:51:39.237Z,52.36
2018-03-27T10:54:07.539Z,49.78
2018-03-27T10:56:36.627Z,48.42
2018-03-27T10:59:05.677Z,48.79
2018-03-27T11:01:33.936Z,48.30
2018-03-27T11:04:02.226Z,49.99
2018-03-27T11:06:30.507Z,49.08
2018-03-27T11:08:58.780Z,47.73
2018-03-27T11:11:27.070Z,47.94
2018-03-27T11:13:55.337Z,47.27
2018-03-27T11:16:23.618Z,47.62
2018-03-27T11:18:51.895Z,48.92
2018-03-27T11:21:20.177Z,48.40
2018-03-27T11:23:48.445Z,48.02
2018-03-27T11:26:16.734Z,47.08
2018-03-27T11:28:45.013Z,47.23
2018-03-27T11:31:14.073Z,46.65
2018-03-27T11:33:42.374Z,46.03
2018-03-27T11:36:10.637Z,46.87
2018-03-27T11:38:38.928Z,45.41
2018-03-27T11:41:07.188Z,46.00
2018-03-27T11:43:35.468Z,44.21
2018-03-27T11:46:03.739Z,43.59
2018-03-27T11:48:32.016Z,43.23
2018-03-27T11:51:00.313Z,43.32
2018-03-27T11:53:28.582Z,44.16
2018-03-27T11:55:56.844Z,44.25
2018-03-27T11:58:25.129Z,44.30
2018-03-27T12:00:53.396Z,45.21
2018-03-27T12:03:21.693Z,45.52
2018-03-27T12:05:49.950Z,44.10
2018-03-27T12:08:18.249Z,43.40
2018-03-27T12:10:46.532Z,42.89
2018-03-27T12:13:14.817Z,43.73
2018-03-27T12:15:43.105Z,43.37
2018-03-27T12:18:12.128Z,43.11
2018-03-27T12:20:40.421Z,43.33
2018-03-27T12:23:08.689Z,43.67
2018-03-27T12:25:36.962Z,45.06
2018-03-27T12:28:05.245Z,44.51
2018-03-27T12:30:33.513Z,45.80
2018-03-27T12:33:01.793Z,44.92
2018-03-27T12:35:30.077Z,44.44
2018-03-27T12:37:58.369Z,44.54
2018-03-27T12:40:26.632Z,45.90
2018-03-27T12:42:54.901Z,47.57
2018-03-27T12:45:23.176Z,46.28
2018-03-27T12:47:51.469Z,48.35
2018-03-27T12:50:19.758Z,46.92
2018-03-27T12:52:48.032Z,45.94
2018-03-27T12:55:16.335Z,46.91
2018-03-27T12:57:45.377Z,47.31
2018-03-27T13:00:13.648Z,46.92
2018-03-27T13:02:41.932Z,46.72
2018-03-27T13:05:10.223Z,45.59
2018-03-27T13:07:38.504Z,45.47
2018-03-27T13:10:06.788Z,47.06
2018-03-27T13:12:35.056Z,48.52
2018-03-27T13:15:03.341Z,47.67
2018-03-27T13:17:31.651Z,48.39
2018-03-27T13:20:00.702Z,48.63
2018-03-27T13:22:28.973Z,49.37
2018-03-27T13:24:57.281Z,50.30
2018-03-27T13:27:25.558Z,51.08
2018-03-27T13:29:53.824Z,50.60
2018-03-27T13:32:22.164Z,52.68
2018-03-27T13:34:51.152Z,52.46
2018-03-27T13:37:19.440Z,53.27
2018-03-27T13:39:47.729Z,52.99
2018-03-27T13:42:16.008Z,53.12
2018-03-27T13:44:44.286Z,54.22
2018-03-27T13:47:12.576Z,55.30
2018-03-27T13:49:40.836Z,54.55
2018-03-27T13:52:09.101Z,54.92
2018-03-27T13:54:37.385Z,55.82
2018-03-27T13:57:05.645Z,56.72
2018-03-27T13:59:33.922Z,57.24
2018-03-27T14:02:02.210Z,57.32
2018-03-27T14:04:30.479Z,59.55
2018-03-27T14:06:58.745Z,60.28
2018-03-27T14:09:27.034Z,61.22
2018-03-27T14:11:55.298Z,62.06
2018-03-27T14:14:23.584Z,62.93
2018-03-27T14:16:51.848Z,63.25
2018-03-27T14:19:20.126Z,62.92
2018-03-27T14:21:48.408Z,62.91
2018-03-27T14:24:16.681Z,63.12
2018-03-27T14:26:44.960Z,63.64
2018-03-27T14:29:13.300Z,63.62
2018-03-27T14:31:42.340Z,62.98
2018-03-27T14:34:10.632Z,62.31
2018-03-27T14:36:38.902Z,61.90
2018-03-27T14:39:08.132Z,60.82
2018-03-27T14:41:37.168Z,60.85
2018-03-27T14:44:05.444Z,61.47
2018-03-27T14:46:33.730Z,61.58
2018-03-27T14:49:02.001Z,61.29
2018-03-27T14:51:30.289Z,59.98
2018-03-27T14:53:58.557Z,60.42
2018-03-27T14:56:26.828Z,61.75
2018-03-27T14:58:55.191Z,62.33
2018-03-27T15:01:23.461Z,61.66
2018-03-27T15:03:51.732Z,61.77
2018-03-27T15:06:20.017Z,61.92
2018-03-27T15:08:48.301Z,62.43
2018-03-27T15:11:16.617Z,61.80
2018-03-27T15:13:44.898Z,61.51
2018-03-27T15:16:13.168Z,60.59
2018-03-27T15:18:41.456Z,58.52
2018-03-27T15:21:09.773Z,59.02
2018-03-27T15:23:38.036Z,59.23
2018-03-27T15:26:07.169Z,58.57
2018-03-27T15:28:35.431Z,58.09
2018-03-27T15:31:03.717Z,57.88
2018-03-27T15:33:32.089Z,57.89
2018-03-27T15:36:01.099Z,57.73
2018-03-27T15:38:29.400Z,57.95
2018-03-27T15:40:57.676Z,57.69
2018-03-27T15:43:25.972Z,57.50
2018-03-27T15:45:55.009Z,57.67
2018-03-27T15:48:23.301Z,57.41
2018-03-27T15:50:51.578Z,58.16
2018-03-27T15:53:19.840Z,58.13
2018-03-27T15:55:48.127Z,58.19
2018-03-27T15:58:16.402Z,58.73
2018-03-27T16:00:44.668Z,59.34
2018-03-27T16:03:12.978Z,60.74
2018-03-27T16:05:41.244Z,61.65
2018-03-27T16:08:09.592Z,63.38
2018-03-27T16:10:37.974Z,65.12
2018-03-27T16:13:06.270Z,66.64
2018-03-27T16:15:34.581Z,68.40
2018-03-27T16:18:03.018Z,67.21
2018-03-27T16:20:31.289Z,66.98
2018-03-27T16:22:59.662Z,67.47
2018-03-27T16:25:27.946Z,69.76
2018-03-27T16:27:56.276Z,71.10
2018-03-27T16:30:25.297Z,71.44
2018-03-27T16:32:53.588Z,72.22
2018-03-27T16:35:21.938Z,73.14
2018-03-27T16:37:51.267Z,73.76
2018-03-27T16:40:20.759Z,75.03
2018-03-27T16:42:49.154Z,74.80
2018-03-27T16:45:17.646Z,75.99
2018-03-27T16:47:46.258Z,76.44
2018-03-27T16:50:16.648Z,77.49
2018-03-27T16:52:46.620Z,78.05
2018-03-27T16:55:15.834Z,78.00
2018-03-27T16:57:45.194Z,79.54
2018-03-27T17:00:15.225Z,78.57
2018-03-27T17:02:44.219Z,78.23
2018-03-27T17:05:13.913Z,80.60
2018-03-27T17:07:43.730Z,81.14
2018-03-27T17:10:13.456Z,82.34
2018-03-27T17:12:43.192Z,82.87
2018-03-27T17:15:13.172Z,82.60
2018-03-27T17:17:43.119Z,84.30
2018-03-27T17:20:13.826Z,83.81
2018-03-27T17:22:43.797Z,84.53
2018-03-27T17:25:13.729Z,85.08
2018-03-27T17:27:43.529Z,85.76
2018-03-27T17:30:13.638Z,86.53
2018-03-27T17:32:43.541Z,86.00
2018-03-27T17:35:13.498Z,85.82
2018-03-27T17:37:43.488Z,85.94
2018-03-27T17:40:14.111Z,87.31
2018-03-27T17:42:44.859Z,86.67
2018-03-27T17:45:14.858Z,86.40
2018-03-27T17:47:44.842Z,87.22
2018-03-27T17:50:14.822Z,87.25
2018-03-27T17:52:44.733Z,86.29
2018-03-27T17:55:14.487Z,87.21
2018-03-27T17:57:45.345Z,87.43
2018-03-27T18:00:15.326Z,87.31
2018-03-27T18:02:45.156Z,86.36
2018-03-27T18:05:16.003Z,86.02
2018-03-27T18:07:45.849Z,86.14
2018-03-27T18:10:15.989Z,86.08
2018-03-27T18:12:45.826Z,86.29
2018-03-27T18:15:15.790Z,86.04
2018-03-27T18:17:45.737Z,86.28
2018-03-27T18:20:15.745Z,86.49
2018-03-27T18:22:45.593Z,87.40
2018-03-27T18:25:16.008Z,87.61
2018-03-27T18:27:46.076Z,87.95
2018-03-27T18:30:16.407Z,88.07
2018-03-27T18:32:46.657Z,88.70
2018-03-27T18:35:16.537Z,90.18
2018-03-27T18:37:46.274Z,90.80
2018-03-27T18:40:16.378Z,91.64
2018-03-27T18:42:46.400Z,90.87
2018-03-27T18:45:16.415Z,90.85
2018-03-27T18:47:46.303Z,91.77
2018-03-27T18:50:16.970Z,92.24
2018-03-27T18:52:46.911Z,92.45
2018-03-27T18:55:17.819Z,91.83
2018-03-27T18:57:47.868Z,90.11
2018-03-27T19:00:18.954Z,91.94
2018-03-27T19:02:48.346Z,91.73
2018-03-27T19:05:18.550Z,91.46
2018-03-27T19:07:48.318Z,92.09
2018-03-27T19:10:17.812Z,91.72
2018-03-27T19:12:47.245Z,92.62
2018-03-27T19:15:16.575Z,92.35
2018-03-27T19:17:45.961Z,91.30
2018-03-27T19:20:15.277Z,92.91
2018-03-27T19:22:45.384Z,92.84
2018-03-27T19:25:14.725Z,92.40
2018-03-27T19:27:44.116Z,93.15
2018-03-27T19:30:14.200Z,93.17
2018-03-27T19:32:43.658Z,93.89
2018-03-27T19:35:12.939Z,94.35
2018-03-27T19:37:42.240Z,95.27
2018-03-27T19:40:12.367Z,94.64
2018-03-27T19:42:43.058Z,95.14
2018-03-27T19:45:13.208Z,95.08
2018-03-27T19:47:43.034Z,94.47
2018-03-27T19:50:12.419Z,95.00
2018-03-27T19:52:42.608Z,94.95
2018-03-27T19:55:12.072Z,94.87
2018-03-27T19:57:41.379Z,94.83
2018-03-27T20:00:10.810Z,95.04
2018-03-27T20:02:40.301Z,94.67
2018-03-27T20:05:09.744Z,95.25
2018-03-27T20:07:39.067Z,95.86
2018-03-27T20:10:08.513Z,96.13
2018-03-27T20:12:38.495Z,95.24
2018-03-27T20:15:08.560Z,95.90
2018-03-27T20:17:39.374Z,95.73
2018-03-27T20:20:08.944Z,95.30
2018-03-27T20:22:38.301Z,94.82
2018-03-27T20:25:07.703Z,95.59
2018-03-27T20:27:37.143Z,95.69
2018-03-27T20:30:07.302Z,95.51
2018-03-27T20:32:36.711Z,95.72
2018-03-27T20:35:05.991Z,95.71
2018-03-27T20:37:36.401Z,95.88
2018-03-27T20:40:06.499Z,95.99
2018-03-27T20:42:35.951Z,95.29
2018-03-27T20:45:05.373Z,96.00
2018-03-27T20:47:34.716Z,95.08
2018-03-27T20:50:04.136Z,95.49
2018-03-27T20:52:33.478Z,94.78
2018-03-27T20:55:02.770Z,94.81
2018-03-27T20:57:33.692Z,94.77
2018-03-27T21:00:03.714Z,94.88
2018-03-27T21:02:33.111Z,95.06
2018-03-27T21:05:02.458Z,94.94
2018-03-27T21:07:33.303Z,95.69
2018-03-27T21:10:02.620Z,95.55
2018-03-27T21:12:32.715Z,95.56
2018-03-27T21:15:02.062Z,95.65
2018-03-27T21:17:33.487Z,94.55
2018-03-27T21:20:03.762Z,94.06
2018-03-27T21:22:33.376Z,93.94
2018-03-27T21:25:02.864Z,94.12
2018-03-27T21:27:33.708Z,94.33
2018-03-27T21:30:03.246Z,94.36
2018-03-27T21:32:32.894Z,94.57
2018-03-27T21:35:02.391Z,94.29
2018-03-27T21:37:33.547Z,95.35
2018-03-27T21:40:03.756Z,94.99
2018-03-27T21:42:33.207Z,96.15
2018-03-27T21:45:02.460Z,96.36
2018-03-27T21:47:31.830Z,96.67
2018-03-27T21:50:01.205Z,96.79
2018-03-27T21:52:30.394Z,97.21
2018-03-27T21:54:59.656Z,97.68
2018-03-27T21:57:29.811Z,97.53
2018-03-27T21:59:59.085Z,98.02
2018-03-27T22:02:29.194Z,98.05
2018-03-27T22:04:59.342Z,97.97
2018-03-27T22:07:28.618Z,97.83
2018-03-27T22:09:58.293Z,97.49
2018-03-27T22:12:27.486Z,97.22
2018-03-27T22:14:56.325Z,97.94
2018-03-27T22:17:24.790Z,98.01
2018-03-27T22:19:53.120Z,97.92
2018-03-27T22:22:21.393Z,98.49
2018-03-27T22:24:49.665Z,98.54
2018-03-27T22:27:17.966Z,98.18
2018-03-27T22:29:46.997Z,98.44
2018-03-27T22:32:15.273Z,98.62
2018-03-27T22:34:43.564Z,98.69
2018-03-27T22:37:11.822Z,98.38
2018-03-27T22:39:40.076Z,98.62
2018-03-27T22:42:09.116Z,98.89
2018-03-27T22:44:37.384Z,98.64
2018-03-27T22:47:05.641Z,98.82
2018-03-27T22:49:33.917Z,98.54
2018-03-27T22:52:02.168Z,98.65
2018-03-27T22:54:31.193Z,99.01
2018-03-27T22:56:59.472Z,99.29
2018-03-27T22:59:27.737Z,99.25
2018-03-27T23:01:55.996Z,99.54
2018-03-27T23:04:24.282Z,99.59
2018-03-27T23:06:52.536Z,99.59
2018-03-27T23:09:21.578Z,99.44
2018-03-27T23:11:49.868Z,99.71
2018-03-27T23:14:18.137Z,99.99
2018-03-27T23:16:46.428Z,99.39
2018-03-27T23:19:14.696Z,99.51
2018-03-27T23:21:42.953Z,99.08
2018-03-27T23:24:11.256Z,98.58
2018-03-27T23:26:39.532Z,97.80
2018-03-27T23:29:07.794Z,98.16
2018-03-27T23:31:36.048Z,97.85
2018-03-27T23:34:04.332Z,97.90
2018-03-27T23:36:32.584Z,96.97
2018-03-27T23:39:00.850Z,96.37
2018-03-27T23:41:30.253Z,96.82
2018-03-27T23:43:59.304Z,97.26
2018-03-27T23:46:27.568Z,98.06
2018-03-27T23:48:55.837Z,99.01
2018-03-27T23:51:24.096Z,98.81
2018-03-27T23:53:52.385Z,99.06
2018-03-27T23:56:20.637Z,99.24
2018-03-27T23:58:48.936Z,98.54
